sensor_id;sensor_type;location;lat;lon;timestamp;P1;durP1;ratioP1;P2;durP2;ratioP2
35312;SDS011;21425;50.454;30.466;2022-08-04T00:02:34;16.45;;;13.05;;
35312;SDS011;21425;50.454;30.466;2022-08-04T00:05:08;17.65;;;13.05;;
35312;SDS011;21425;50.454;30.466;2022-08-04T00:07:46;18.23;;;12.25;;
35312;SDS011;21425;50.454;30.466;2022-08-04T00:10:22;16.00;;;12.63;;
35312;SDS011;21425;50.454;30.466;2022-08-04T00:12:50;18.73;;;13.75;;
35312;SDS011;21425;50.454;30.466;2022-08-04T00:15:18;18.23;;;12.27;;
35312;SDS011;21425;50.454;30.466;2022-08-04T00:17:45;15.65;;;11.43;;
35312;SDS011;21425;50.454;30.466;2022-08-04T00:20:18;15.50;;;12.23;;
35312;SDS011;21425;50.454;30.466;2022-08-04T00:22:45;18.52;;;13.35;;
35312;SDS011;21425;50.454;30.466;2022-08-04T00:25:12;19.35;;;13.77;;
35312;SDS011;21425;50.454;30.466;2022-08-04T00:27:37;18.90;;;13.63;;
35312;SDS011;21425;50.454;30.466;2022-08-04T00:30:04;20.35;;;14.48;;
35312;SDS011;21425;50.454;30.466;2022-08-04T00:32:30;15.77;;;13.35;;
35312;SDS011;21425;50.454;30.466;2022-08-04T00:34:57;18.15;;;13.23;;
35312;SDS011;21425;50.454;30.466;2022-08-04T00:37:24;21.25;;;13.85;;
35312;SDS011;21425;50.454;30.466;2022-08-04T00:39:51;18.73;;;13.90;;
35312;SDS011;21425;50.454;30.466;2022-08-04T00:42:36;22.27;;;15.35;;
35312;SDS011;21425;50.454;30.466;2022-08-04T00:51:10;19.67;;;15.40;;
35312;SDS011;21425;50.454;30.466;2022-08-04T00:58:42;25.45;;;18.23;;
35312;SDS011;21425;50.454;30.466;2022-08-04T01:01:16;30.35;;;18.15;;
35312;SDS011;21425;50.454;30.466;2022-08-04T01:06:58;26.73;;;18.85;;
35312;SDS011;21425;50.454;30.466;2022-08-04T01:09:57;25.23;;;17.42;;
35312;SDS011;21425;50.454;30.466;2022-08-04T01:18:26;27.48;;;19.23;;
35312;SDS011;21425;50.454;30.466;2022-08-04T01:26:01;23.08;;;16.05;;
35312;SDS011;21425;50.454;30.466;2022-08-04T01:29:00;23.98;;;17.05;;
35312;SDS011;21425;50.454;30.466;2022-08-04T01:31:45;25.25;;;17.67;;
35312;SDS011;21425;50.454;30.466;2022-08-04T01:34:27;24.73;;;17.35;;
35312;SDS011;21425;50.454;30.466;2022-08-04T01:36:58;27.17;;;17.25;;
35312;SDS011;21425;50.454;30.466;2022-08-04T01:42:08;25.00;;;17.70;;
35312;SDS011;21425;50.454;30.466;2022-08-04T01:44:35;20.23;;;14.95;;
35312;SDS011;21425;50.454;30.466;2022-08-04T01:47:03;31.45;;;17.45;;
35312;SDS011;21425;50.454;30.466;2022-08-04T01:49:30;26.63;;;17.98;;
35312;SDS011;21425;50.454;30.466;2022-08-04T01:51:57;28.52;;;17.13;;
35312;SDS011;21425;50.454;30.466;2022-08-04T01:54:23;27.08;;;17.23;;
35312;SDS011;21425;50.454;30.466;2022-08-04T01:56:50;24.65;;;17.17;;
35312;SDS011;21425;50.454;30.466;2022-08-04T01:59:17;23.88;;;16.25;;
35312;SDS011;21425;50.454;30.466;2022-08-04T02:01:45;24.83;;;17.25;;
35312;SDS011;21425;50.454;30.466;2022-08-04T02:04:18;25.13;;;16.52;;
35312;SDS011;21425;50.454;30.466;2022-08-04T02:09:41;26.67;;;17.30;;
35312;SDS011;21425;50.454;30.466;2022-08-04T02:12:13;24.92;;;17.92;;
35312;SDS011;21425;50.454;30.466;2022-08-04T02:14:55;26.92;;;17.95;;
35312;SDS011;21425;50.454;30.466;2022-08-04T02:17:30;23.73;;;17.50;;
35312;SDS011;21425;50.454;30.466;2022-08-04T02:22:32;28.38;;;17.38;;
35312;SDS011;21425;50.454;30.466;2022-08-04T02:25:05;27.90;;;18.90;;
35312;SDS011;21425;50.454;30.466;2022-08-04T02:27:39;29.17;;;19.98;;
35312;SDS011;21425;50.454;30.466;2022-08-04T02:30:37;30.63;;;19.02;;
35312;SDS011;21425;50.454;30.466;2022-08-04T02:33:08;30.73;;;20.17;;
35312;SDS011;21425;50.454;30.466;2022-08-04T02:35:40;36.38;;;21.15;;
35312;SDS011;21425;50.454;30.466;2022-08-04T02:38:26;35.40;;;20.65;;
35312;SDS011;21425;50.454;30.466;2022-08-04T02:41:07;32.83;;;21.48;;
35312;SDS011;21425;50.454;30.466;2022-08-04T02:43:35;32.40;;;22.35;;
35312;SDS011;21425;50.454;30.466;2022-08-04T02:46:02;35.17;;;21.67;;
35312;SDS011;21425;50.454;30.466;2022-08-04T02:48:30;32.13;;;20.98;;
35312;SDS011;21425;50.454;30.466;2022-08-04T02:50:58;38.97;;;22.75;;
35312;SDS011;21425;50.454;30.466;2022-08-04T02:53:27;32.15;;;21.45;;
35312;SDS011;21425;50.454;30.466;2022-08-04T02:55:54;34.55;;;23.15;;
35312;SDS011;21425;50.454;30.466;2022-08-04T02:58:21;35.47;;;23.27;;
35312;SDS011;21425;50.454;30.466;2022-08-04T03:00:50;34.97;;;22.17;;
35312;SDS011;21425;50.454;30.466;2022-08-04T03:03:39;38.72;;;24.90;;
35312;SDS011;21425;50.454;30.466;2022-08-04T03:18:37;34.83;;;22.70;;
35312;SDS011;21425;50.454;30.466;2022-08-04T03:43:27;33.60;;;23.80;;
35312;SDS011;21425;50.454;30.466;2022-08-04T04:08:14;32.70;;;20.50;;
35312;SDS011;21425;50.454;30.466;2022-08-04T04:11:15;32.30;;;21.00;;
35312;SDS011;21425;50.454;30.466;2022-08-04T04:22:39;28.08;;;18.88;;
35312;SDS011;21425;50.454;30.466;2022-08-04T04:30:51;28.02;;;18.27;;
35312;SDS011;21425;50.454;30.466;2022-08-04T04:36:10;28.85;;;17.08;;
35312;SDS011;21425;50.454;30.466;2022-08-04T04:46:47;27.50;;;18.83;;
35312;SDS011;21425;50.454;30.466;2022-08-04T04:49:36;25.73;;;19.23;;
35312;SDS011;21425;50.454;30.466;2022-08-04T04:57:39;30.95;;;20.90;;
35312;SDS011;21425;50.454;30.466;2022-08-04T05:00:07;27.85;;;20.80;;
35312;SDS011;21425;50.454;30.466;2022-08-04T05:11:00;34.72;;;20.20;;
35312;SDS011;21425;50.454;30.466;2022-08-04T05:18:54;36.42;;;23.73;;
35312;SDS011;21425;50.454;30.466;2022-08-04T05:21:37;34.45;;;22.17;;
35312;SDS011;21425;50.454;30.466;2022-08-04T05:24:09;31.17;;;21.52;;
35312;SDS011;21425;50.454;30.466;2022-08-04T05:26:40;35.47;;;21.92;;
35312;SDS011;21425;50.454;30.466;2022-08-04T05:32:05;30.13;;;19.52;;
35312;SDS011;21425;50.454;30.466;2022-08-04T05:34:43;30.10;;;19.90;;
35312;SDS011;21425;50.454;30.466;2022-08-04T05:37:16;32.60;;;20.65;;
35312;SDS011;21425;50.454;30.466;2022-08-04T05:39:45;31.63;;;22.90;;
35312;SDS011;21425;50.454;30.466;2022-08-04T05:42:17;27.00;;;22.52;;
35312;SDS011;21425;50.454;30.466;2022-08-04T05:44:45;29.10;;;20.92;;
35312;SDS011;21425;50.454;30.466;2022-08-04T05:47:10;31.70;;;20.95;;
35312;SDS011;21425;50.454;30.466;2022-08-04T05:49:37;29.75;;;21.08;;
35312;SDS011;21425;50.454;30.466;2022-08-04T05:52:05;31.40;;;23.00;;
35312;SDS011;21425;50.454;30.466;2022-08-04T05:54:34;28.50;;;21.17;;
35312;SDS011;21425;50.454;30.466;2022-08-04T05:57:02;30.52;;;19.00;;
35312;SDS011;21425;50.454;30.466;2022-08-04T05:59:29;28.33;;;19.85;;
35312;SDS011;21425;50.454;30.466;2022-08-04T06:01:57;28.65;;;19.45;;
35312;SDS011;21425;50.454;30.466;2022-08-04T06:04:25;27.40;;;18.77;;
35312;SDS011;21425;50.454;30.466;2022-08-04T06:06:56;25.27;;;16.75;;
35312;SDS011;21425;50.454;30.466;2022-08-04T06:09:21;23.80;;;17.90;;
35312;SDS011;21425;50.454;30.466;2022-08-04T06:11:48;23.83;;;17.13;;
35312;SDS011;21425;50.454;30.466;2022-08-04T06:14:15;28.75;;;18.67;;
35312;SDS011;21425;50.454;30.466;2022-08-04T06:16:42;23.30;;;17.40;;
35312;SDS011;21425;50.454;30.466;2022-08-04T06:19:10;22.52;;;17.90;;
35312;SDS011;21425;50.454;30.466;2022-08-04T06:21:38;24.33;;;16.75;;
35312;SDS011;21425;50.454;30.466;2022-08-04T06:24:08;25.02;;;16.33;;
35312;SDS011;21425;50.454;30.466;2022-08-04T06:26:37;24.45;;;16.65;;
35312;SDS011;21425;50.454;30.466;2022-08-04T06:29:04;22.83;;;17.48;;
35312;SDS011;21425;50.454;30.466;2022-08-04T06:31:39;27.15;;;16.70;;
35312;SDS011;21425;50.454;30.466;2022-08-04T06:34:07;24.08;;;15.45;;
35312;SDS011;21425;50.454;30.466;2022-08-04T06:36:35;21.15;;;15.02;;
35312;SDS011;21425;50.454;30.466;2022-08-04T06:39:03;23.65;;;16.13;;
35312;SDS011;21425;50.454;30.466;2022-08-04T06:41:29;22.88;;;15.30;;
35312;SDS011;21425;50.454;30.466;2022-08-04T06:43:59;24.08;;;16.65;;
35312;SDS011;21425;50.454;30.466;2022-08-04T06:46:27;24.60;;;16.42;;
35312;SDS011;21425;50.454;30.466;2022-08-04T06:48:54;24.27;;;17.83;;
35312;SDS011;21425;50.454;30.466;2022-08-04T06:51:21;26.92;;;19.38;;
35312;SDS011;21425;50.454;30.466;2022-08-04T06:53:48;22.42;;;16.85;;
35312;SDS011;21425;50.454;30.466;2022-08-04T06:56:15;24.75;;;17.15;;
35312;SDS011;21425;50.454;30.466;2022-08-04T06:58:44;24.05;;;16.95;;
35312;SDS011;21425;50.454;30.466;2022-08-04T07:01:13;21.63;;;16.17;;
35312;SDS011;21425;50.454;30.466;2022-08-04T07:03:41;22.38;;;17.92;;
35312;SDS011;21425;50.454;30.466;2022-08-04T07:06:08;20.98;;;15.35;;
35312;SDS011;21425;50.454;30.466;2022-08-04T07:08:33;27.80;;;16.60;;
35312;SDS011;21425;50.454;30.466;2022-08-04T07:11:00;22.52;;;15.95;;
35312;SDS011;21425;50.454;30.466;2022-08-04T07:13:26;22.98;;;16.38;;
35312;SDS011;21425;50.454;30.466;2022-08-04T07:15:54;22.10;;;15.77;;
35312;SDS011;21425;50.454;30.466;2022-08-04T07:18:21;21.10;;;16.02;;
35312;SDS011;21425;50.454;30.466;2022-08-04T07:20:47;22.42;;;15.60;;
35312;SDS011;21425;50.454;30.466;2022-08-04T07:23:14;23.05;;;16.40;;
35312;SDS011;21425;50.454;30.466;2022-08-04T07:25:51;26.92;;;16.48;;
35312;SDS011;21425;50.454;30.466;2022-08-04T07:28:19;23.05;;;16.40;;
35312;SDS011;21425;50.454;30.466;2022-08-04T07:30:46;21.27;;;15.90;;
35312;SDS011;21425;50.454;30.466;2022-08-04T07:33:13;22.77;;;15.38;;
35312;SDS011;21425;50.454;30.466;2022-08-04T07:35:42;22.92;;;16.27;;
35312;SDS011;21425;50.454;30.466;2022-08-04T07:38:09;22.35;;;16.42;;
35312;SDS011;21425;50.454;30.466;2022-08-04T07:40:37;24.85;;;17.77;;
35312;SDS011;21425;50.454;30.466;2022-08-04T07:43:04;23.33;;;16.75;;
35312;SDS011;21425;50.454;30.466;2022-08-04T07:45:30;22.27;;;15.57;;
35312;SDS011;21425;50.454;30.466;2022-08-04T07:47:56;22.65;;;17.08;;
35312;SDS011;21425;50.454;30.466;2022-08-04T07:50:23;26.67;;;17.50;;
35312;SDS011;21425;50.454;30.466;2022-08-04T07:52:50;24.35;;;15.40;;
35312;SDS011;21425;50.454;30.466;2022-08-04T07:55:16;20.27;;;14.57;;
35312;SDS011;21425;50.454;30.466;2022-08-04T07:57:42;19.95;;;14.90;;
35312;SDS011;21425;50.454;30.466;2022-08-04T08:00:08;20.60;;;15.40;;
35312;SDS011;21425;50.454;30.466;2022-08-04T08:02:36;21.92;;;16.17;;
35312;SDS011;21425;50.454;30.466;2022-08-04T08:05:03;19.25;;;14.65;;
35312;SDS011;21425;50.454;30.466;2022-08-04T08:07:29;21.95;;;14.20;;
35312;SDS011;21425;50.454;30.466;2022-08-04T08:09:55;30.23;;;14.82;;
35312;SDS011;21425;50.454;30.466;2022-08-04T08:12:20;18.35;;;13.70;;
35312;SDS011;21425;50.454;30.466;2022-08-04T08:14:46;23.83;;;13.70;;
35312;SDS011;21425;50.454;30.466;2022-08-04T08:17:12;20.08;;;13.43;;
35312;SDS011;21425;50.454;30.466;2022-08-04T08:19:38;19.60;;;14.50;;
35312;SDS011;21425;50.454;30.466;2022-08-04T08:22:04;18.45;;;13.77;;
35312;SDS011;21425;50.454;30.466;2022-08-04T08:24:31;19.50;;;13.57;;
35312;SDS011;21425;50.454;30.466;2022-08-04T08:27:00;18.45;;;13.85;;
35312;SDS011;21425;50.454;30.466;2022-08-04T08:29:32;23.65;;;12.15;;
35312;SDS011;21425;50.454;30.466;2022-08-04T08:31:58;15.02;;;12.23;;
35312;SDS011;21425;50.454;30.466;2022-08-04T08:34:29;20.33;;;12.27;;
35312;SDS011;21425;50.454;30.466;2022-08-04T08:37:11;21.67;;;13.10;;
35312;SDS011;21425;50.454;30.466;2022-08-04T08:39:58;15.38;;;12.27;;
35312;SDS011;21425;50.454;30.466;2022-08-04T08:42:37;19.08;;;12.05;;
35312;SDS011;21425;50.454;30.466;2022-08-04T08:51:05;17.58;;;12.88;;
35312;SDS011;21425;50.454;30.466;2022-08-04T08:56:42;13.98;;;11.88;;
35312;SDS011;21425;50.454;30.466;2022-08-04T09:08:04;14.20;;;10.73;;
35312;SDS011;21425;50.454;30.466;2022-08-04T09:13:18;14.63;;;11.80;;
35312;SDS011;21425;50.454;30.466;2022-08-04T09:18:46;14.02;;;10.60;;
35312;SDS011;21425;50.454;30.466;2022-08-04T09:21:22;19.48;;;11.30;;
35312;SDS011;21425;50.454;30.466;2022-08-04T09:27:00;14.25;;;10.80;;
35312;SDS011;21425;50.454;30.466;2022-08-04T09:29:32;15.40;;;10.75;;
35312;SDS011;21425;50.454;30.466;2022-08-04T09:46:13;14.13;;;10.82;;
35312;SDS011;21425;50.454;30.466;2022-08-04T09:48:51;12.85;;;10.57;;
35312;SDS011;21425;50.454;30.466;2022-08-04T09:54:14;11.88;;;10.55;;
35312;SDS011;21425;50.454;30.466;2022-08-04T09:56:51;14.07;;;10.57;;
35312;SDS011;21425;50.454;30.466;2022-08-04T09:59:25;15.18;;;10.77;;
35312;SDS011;21425;50.454;30.466;2022-08-04T10:01:58;11.57;;;9.77;;
35312;SDS011;21425;50.454;30.466;2022-08-04T10:04:31;17.10;;;9.95;;
35312;SDS011;21425;50.454;30.466;2022-08-04T10:12:30;12.35;;;9.40;;
35312;SDS011;21425;50.454;30.466;2022-08-04T10:15:20;18.50;;;10.52;;
35312;SDS011;21425;50.454;30.466;2022-08-04T10:24:37;11.05;;;9.10;;
35312;SDS011;21425;50.454;30.466;2022-08-04T10:26:55;13.65;;;9.30;;
35312;SDS011;21425;50.454;30.466;2022-08-04T10:29:36;14.57;;;9.95;;
35312;SDS011;21425;50.454;30.466;2022-08-04T10:32:32;12.50;;;9.13;;
35312;SDS011;21425;50.454;30.466;2022-08-04T10:35:18;14.07;;;9.25;;
35312;SDS011;21425;50.454;30.466;2022-08-04T10:40:31;14.77;;;9.65;;
35312;SDS011;21425;50.454;30.466;2022-08-04T10:46:18;11.68;;;8.95;;
35312;SDS011;21425;50.454;30.466;2022-08-04T10:48:57;13.18;;;9.15;;
35312;SDS011;21425;50.454;30.466;2022-08-04T10:51:31;13.98;;;9.40;;
35312;SDS011;21425;50.454;30.466;2022-08-04T10:54:11;14.15;;;9.30;;
35312;SDS011;21425;50.454;30.466;2022-08-04T10:56:51;12.20;;;9.23;;
35312;SDS011;21425;50.454;30.466;2022-08-04T10:59:20;11.77;;;8.90;;
35312;SDS011;21425;50.454;30.466;2022-08-04T11:01:53;13.30;;;9.55;;
35312;SDS011;21425;50.454;30.466;2022-08-04T11:07:06;12.50;;;9.65;;
35312;SDS011;21425;50.454;30.466;2022-08-04T11:09:33;14.10;;;9.80;;
35312;SDS011;21425;50.454;30.466;2022-08-04T11:12:02;16.20;;;8.88;;
35312;SDS011;21425;50.454;30.466;2022-08-04T11:14:46;16.45;;;9.73;;
35312;SDS011;21425;50.454;30.466;2022-08-04T11:17:51;13.17;;;8.97;;
35312;SDS011;21425;50.454;30.466;2022-08-04T11:23:05;11.73;;;8.90;;
35312;SDS011;21425;50.454;30.466;2022-08-04T11:25:35;11.98;;;9.18;;
35312;SDS011;21425;50.454;30.466;2022-08-04T11:31:06;10.45;;;9.20;;
35312;SDS011;21425;50.454;30.466;2022-08-04T11:36:31;13.05;;;9.38;;
35312;SDS011;21425;50.454;30.466;2022-08-04T11:39:13;10.57;;;8.60;;
35312;SDS011;21425;50.454;30.466;2022-08-04T11:41:47;15.82;;;8.82;;
35312;SDS011;21425;50.454;30.466;2022-08-04T11:46:52;12.65;;;8.98;;
35312;SDS011;21425;50.454;30.466;2022-08-04T11:49:25;14.48;;;9.20;;
35312;SDS011;21425;50.454;30.466;2022-08-04T11:51:57;12.25;;;9.02;;
35312;SDS011;21425;50.454;30.466;2022-08-04T11:54:24;14.77;;;8.65;;
35312;SDS011;21425;50.454;30.466;2022-08-04T11:56:51;12.23;;;10.00;;
35312;SDS011;21425;50.454;30.466;2022-08-04T11:59:18;11.20;;;9.30;;
35312;SDS011;21425;50.454;30.466;2022-08-04T12:09:57;9.90;;;8.80;;
35312;SDS011;21425;50.454;30.466;2022-08-04T12:12:53;13.43;;;8.93;;
35312;SDS011;21425;50.454;30.466;2022-08-04T12:15:31;10.43;;;7.78;;
35312;SDS011;21425;50.454;30.466;2022-08-04T12:18:32;10.45;;;8.13;;
35312;SDS011;21425;50.454;30.466;2022-08-04T12:21:03;13.97;;;8.10;;
35312;SDS011;21425;50.454;30.466;2022-08-04T12:23:37;9.70;;;7.65;;
35312;SDS011;21425;50.454;30.466;2022-08-04T12:26:08;9.77;;;7.80;;
35312;SDS011;21425;50.454;30.466;2022-08-04T12:28:40;10.98;;;8.15;;
35312;SDS011;21425;50.454;30.466;2022-08-04T12:31:18;12.55;;;8.68;;
35312;SDS011;21425;50.454;30.466;2022-08-04T12:33:52;11.15;;;9.52;;
35312;SDS011;21425;50.454;30.466;2022-08-04T12:36:30;18.08;;;10.13;;
35312;SDS011;21425;50.454;30.466;2022-08-04T12:39:00;14.10;;;11.50;;
35312;SDS011;21425;50.454;30.466;2022-08-04T12:41:37;10.70;;;9.43;;
35312;SDS011;21425;50.454;30.466;2022-08-04T12:44:11;16.50;;;13.02;;
35312;SDS011;21425;50.454;30.466;2022-08-04T12:46:38;12.13;;;10.13;;
35312;SDS011;21425;50.454;30.466;2022-08-04T12:49:05;10.45;;;8.70;;
35312;SDS011;21425;50.454;30.466;2022-08-04T12:51:36;10.82;;;8.18;;
35312;SDS011;21425;50.454;30.466;2022-08-04T12:54:04;9.38;;;6.82;;
35312;SDS011;21425;50.454;30.466;2022-08-04T12:56:32;10.05;;;6.93;;
35312;SDS011;21425;50.454;30.466;2022-08-04T12:59:03;9.70;;;8.00;;
35312;SDS011;21425;50.454;30.466;2022-08-04T13:01:33;11.02;;;7.95;;
35312;SDS011;21425;50.454;30.466;2022-08-04T13:04:21;11.73;;;9.05;;
35312;SDS011;21425;50.454;30.466;2022-08-04T13:06:56;12.50;;;8.55;;
35312;SDS011;21425;50.454;30.466;2022-08-04T13:09:28;11.68;;;8.85;;
35312;SDS011;21425;50.454;30.466;2022-08-04T13:11:59;9.30;;;7.78;;
35312;SDS011;21425;50.454;30.466;2022-08-04T13:14:30;13.15;;;8.13;;
35312;SDS011;21425;50.454;30.466;2022-08-04T13:16:59;11.00;;;6.95;;
35312;SDS011;21425;50.454;30.466;2022-08-04T13:19:28;12.57;;;7.70;;
35312;SDS011;21425;50.454;30.466;2022-08-04T13:21:55;9.02;;;6.80;;
35312;SDS011;21425;50.454;30.466;2022-08-04T13:24:23;11.32;;;7.07;;
35312;SDS011;21425;50.454;30.466;2022-08-04T13:29:18;7.82;;;6.30;;
35312;SDS011;21425;50.454;30.466;2022-08-04T13:31:46;8.43;;;5.97;;
35312;SDS011;21425;50.454;30.466;2022-08-04T13:34:12;8.43;;;6.22;;
35312;SDS011;21425;50.454;30.466;2022-08-04T13:36:40;8.15;;;6.57;;
35312;SDS011;21425;50.454;30.466;2022-08-04T13:39:12;8.55;;;6.60;;
35312;SDS011;21425;50.454;30.466;2022-08-04T13:41:43;13.25;;;7.72;;
35312;SDS011;21425;50.454;30.466;2022-08-04T13:44:11;9.70;;;7.00;;
35312;SDS011;21425;50.454;30.466;2022-08-04T13:46:39;10.75;;;7.70;;
35312;SDS011;21425;50.454;30.466;2022-08-04T13:49:11;10.57;;;7.82;;
35312;SDS011;21425;50.454;30.466;2022-08-04T13:51:40;8.57;;;7.68;;
35312;SDS011;21425;50.454;30.466;2022-08-04T13:54:10;11.77;;;8.23;;
35312;SDS011;21425;50.454;30.466;2022-08-04T13:56:37;12.60;;;8.95;;
35312;SDS011;21425;50.454;30.466;2022-08-04T13:59:09;10.27;;;8.50;;
35312;SDS011;21425;50.454;30.466;2022-08-04T14:01:40;10.40;;;7.38;;
35312;SDS011;21425;50.454;30.466;2022-08-04T14:04:15;8.85;;;7.00;;
35312;SDS011;21425;50.454;30.466;2022-08-04T14:07:05;10.48;;;6.40;;
35312;SDS011;21425;50.454;30.466;2022-08-04T14:09:37;9.55;;;6.18;;
35312;SDS011;21425;50.454;30.466;2022-08-04T14:12:08;8.57;;;6.75;;
35312;SDS011;21425;50.454;30.466;2022-08-04T14:14:36;8.98;;;6.53;;
35312;SDS011;21425;50.454;30.466;2022-08-04T14:17:10;9.55;;;6.57;;
35312;SDS011;21425;50.454;30.466;2022-08-04T14:27:40;7.65;;;6.05;;
35312;SDS011;21425;50.454;30.466;2022-08-04T14:30:19;10.07;;;5.85;;
35312;SDS011;21425;50.454;30.466;2022-08-04T14:35:36;8.02;;;6.00;;
35312;SDS011;21425;50.454;30.466;2022-08-04T14:38:04;8.25;;;6.45;;
35312;SDS011;21425;50.454;30.466;2022-08-04T14:40:32;10.57;;;6.93;;
35312;SDS011;21425;50.454;30.466;2022-08-04T14:43:00;7.68;;;6.55;;
35312;SDS011;21425;50.454;30.466;2022-08-04T14:45:36;8.10;;;6.15;;
35312;SDS011;21425;50.454;30.466;2022-08-04T14:48:05;6.57;;;5.82;;
35312;SDS011;21425;50.454;30.466;2022-08-04T14:50:42;7.70;;;5.93;;
35312;SDS011;21425;50.454;30.466;2022-08-04T14:55:39;6.95;;;5.93;;
35312;SDS011;21425;50.454;30.466;2022-08-04T14:58:19;6.93;;;6.03;;
35312;SDS011;21425;50.454;30.466;2022-08-04T15:00:46;7.97;;;5.93;;
35312;SDS011;21425;50.454;30.466;2022-08-04T15:03:13;10.93;;;6.45;;
35312;SDS011;21425;50.454;30.466;2022-08-04T15:05:39;7.95;;;7.10;;
35312;SDS011;21425;50.454;30.466;2022-08-04T15:08:07;7.82;;;7.03;;
35312;SDS011;21425;50.454;30.466;2022-08-04T15:10:33;9.32;;;6.85;;
35312;SDS011;21425;50.454;30.466;2022-08-04T15:13:02;7.55;;;6.50;;
35312;SDS011;21425;50.454;30.466;2022-08-04T15:15:28;11.05;;;7.80;;
35312;SDS011;21425;50.454;30.466;2022-08-04T15:17:54;8.88;;;7.30;;
35312;SDS011;21425;50.454;30.466;2022-08-04T15:20:20;8.63;;;6.95;;
35312;SDS011;21425;50.454;30.466;2022-08-04T15:22:46;8.18;;;7.22;;
35312;SDS011;21425;50.454;30.466;2022-08-04T15:25:13;8.95;;;7.45;;
35312;SDS011;21425;50.454;30.466;2022-08-04T15:27:40;10.55;;;7.25;;
35312;SDS011;21425;50.454;30.466;2022-08-04T15:30:08;11.32;;;7.28;;
35312;SDS011;21425;50.454;30.466;2022-08-04T15:32:37;8.93;;;7.35;;
35312;SDS011;21425;50.454;30.466;2022-08-04T15:35:16;9.48;;;7.43;;
35312;SDS011;21425;50.454;30.466;2022-08-04T15:46:03;10.20;;;6.97;;
35312;SDS011;21425;50.454;30.466;2022-08-04T15:48:29;8.30;;;6.78;;
35312;SDS011;21425;50.454;30.466;2022-08-04T15:53:22;10.88;;;6.80;;
35312;SDS011;21425;50.454;30.466;2022-08-04T15:55:51;7.88;;;6.03;;
35312;SDS011;21425;50.454;30.466;2022-08-04T15:58:17;9.98;;;7.38;;
35312;SDS011;21425;50.454;30.466;2022-08-04T16:19:04;8.70;;;6.05;;
35312;SDS011;21425;50.454;30.466;2022-08-04T16:21:32;8.18;;;5.85;;
35312;SDS011;21425;50.454;30.466;2022-08-04T16:24:05;9.15;;;5.70;;
35312;SDS011;21425;50.454;30.466;2022-08-04T16:26:43;7.40;;;5.33;;
35312;SDS011;21425;50.454;30.466;2022-08-04T16:34:41;10.00;;;5.50;;
35312;SDS011;21425;50.454;30.466;2022-08-04T16:37:10;10.45;;;6.10;;
35312;SDS011;21425;50.454;30.466;2022-08-04T16:39:37;8.45;;;5.40;;
35312;SDS011;21425;50.454;30.466;2022-08-04T16:45:01;9.68;;;6.20;;
35312;SDS011;21425;50.454;30.466;2022-08-04T16:50:15;8.65;;;6.40;;
35312;SDS011;21425;50.454;30.466;2022-08-04T16:52:44;7.57;;;6.30;;
35312;SDS011;21425;50.454;30.466;2022-08-04T16:55:10;8.07;;;6.03;;
35312;SDS011;21425;50.454;30.466;2022-08-04T16:57:39;9.27;;;6.47;;
35312;SDS011;21425;50.454;30.466;2022-08-04T17:00:05;9.98;;;6.32;;
35312;SDS011;21425;50.454;30.466;2022-08-04T17:02:32;10.63;;;6.80;;
35312;SDS011;21425;50.454;30.466;2022-08-04T17:04:59;8.60;;;6.97;;
35312;SDS011;21425;50.454;30.466;2022-08-04T17:07:24;7.43;;;6.50;;
35312;SDS011;21425;50.454;30.466;2022-08-04T17:09:50;9.00;;;7.00;;
35312;SDS011;21425;50.454;30.466;2022-08-04T17:12:17;8.15;;;6.00;;
35312;SDS011;21425;50.454;30.466;2022-08-04T17:14:42;9.73;;;6.90;;
35312;SDS011;21425;50.454;30.466;2022-08-04T17:17:08;7.93;;;6.85;;
35312;SDS011;21425;50.454;30.466;2022-08-04T17:19:34;9.77;;;7.05;;
35312;SDS011;21425;50.454;30.466;2022-08-04T17:22:03;12.18;;;7.13;;
35312;SDS011;21425;50.454;30.466;2022-08-04T17:24:33;11.32;;;7.70;;
35312;SDS011;21425;50.454;30.466;2022-08-04T17:27:02;8.77;;;6.90;;
35312;SDS011;21425;50.454;30.466;2022-08-04T17:29:29;9.85;;;6.57;;
35312;SDS011;21425;50.454;30.466;2022-08-04T17:31:55;8.35;;;7.20;;
35312;SDS011;21425;50.454;30.466;2022-08-04T17:34:21;10.90;;;7.38;;
35312;SDS011;21425;50.454;30.466;2022-08-04T17:36:49;13.05;;;7.45;;
35312;SDS011;21425;50.454;30.466;2022-08-04T17:39:16;9.80;;;7.20;;
35312;SDS011;21425;50.454;30.466;2022-08-04T17:41:45;12.02;;;7.50;;
35312;SDS011;21425;50.454;30.466;2022-08-04T17:44:11;10.85;;;8.23;;
35312;SDS011;21425;50.454;30.466;2022-08-04T17:46:38;8.73;;;7.50;;
35312;SDS011;21425;50.454;30.466;2022-08-04T17:51:45;8.77;;;7.72;;
35312;SDS011;21425;50.454;30.466;2022-08-04T17:54:18;9.63;;;7.72;;
35312;SDS011;21425;50.454;30.466;2022-08-04T17:56:46;10.35;;;7.95;;
35312;SDS011;21425;50.454;30.466;2022-08-04T17:59:18;9.40;;;7.78;;
35312;SDS011;21425;50.454;30.466;2022-08-04T18:09:58;11.88;;;8.93;;
35312;SDS011;21425;50.454;30.466;2022-08-04T18:14:58;12.80;;;8.82;;
35312;SDS011;21425;50.454;30.466;2022-08-04T18:17:35;10.98;;;9.32;;
35312;SDS011;21425;50.454;30.466;2022-08-04T18:20:15;10.65;;;9.00;;
35312;SDS011;21425;50.454;30.466;2022-08-04T18:22:46;12.45;;;9.40;;
35312;SDS011;21425;50.454;30.466;2022-08-04T18:25:13;12.20;;;9.43;;
35312;SDS011;21425;50.454;30.466;2022-08-04T18:27:50;12.93;;;9.07;;
35312;SDS011;21425;50.454;30.466;2022-08-04T18:30:21;10.60;;;8.45;;
35312;SDS011;21425;50.454;30.466;2022-08-04T18:32:48;12.30;;;8.93;;
35312;SDS011;21425;50.454;30.466;2022-08-04T18:35:14;10.68;;;9.48;;
35312;SDS011;21425;50.454;30.466;2022-08-04T18:37:40;12.48;;;9.48;;
35312;SDS011;21425;50.454;30.466;2022-08-04T18:40:07;14.40;;;9.85;;
35312;SDS011;21425;50.454;30.466;2022-08-04T18:42:34;15.27;;;9.95;;
35312;SDS011;21425;50.454;30.466;2022-08-04T18:45:00;16.63;;;10.50;;
35312;SDS011;21425;50.454;30.466;2022-08-04T18:47:28;12.93;;;9.05;;
35312;SDS011;21425;50.454;30.466;2022-08-04T18:49:53;10.95;;;9.05;;
35312;SDS011;21425;50.454;30.466;2022-08-04T18:52:20;12.02;;;9.73;;
35312;SDS011;21425;50.454;30.466;2022-08-04T18:54:46;12.70;;;9.45;;
35312;SDS011;21425;50.454;30.466;2022-08-04T18:57:16;14.43;;;10.18;;
35312;SDS011;21425;50.454;30.466;2022-08-04T18:59:44;13.40;;;10.33;;
35312;SDS011;21425;50.454;30.466;2022-08-04T19:02:10;13.95;;;11.13;;
35312;SDS011;21425;50.454;30.466;2022-08-04T19:04:35;13.70;;;10.73;;
35312;SDS011;21425;50.454;30.466;2022-08-04T19:07:02;15.35;;;10.35;;
35312;SDS011;21425;50.454;30.466;2022-08-04T19:09:28;16.75;;;10.68;;
35312;SDS011;21425;50.454;30.466;2022-08-04T19:11:54;14.93;;;11.18;;
35312;SDS011;21425;50.454;30.466;2022-08-04T19:14:21;13.70;;;11.07;;
35312;SDS011;21425;50.454;30.466;2022-08-04T19:16:46;14.30;;;10.07;;
35312;SDS011;21425;50.454;30.466;2022-08-04T19:19:12;12.93;;;11.00;;
35312;SDS011;21425;50.454;30.466;2022-08-04T19:21:39;15.05;;;11.35;;
35312;SDS011;21425;50.454;30.466;2022-08-04T19:24:04;15.15;;;11.63;;
35312;SDS011;21425;50.454;30.466;2022-08-04T19:26:31;17.08;;;11.85;;
35312;SDS011;21425;50.454;30.466;2022-08-04T19:28:56;17.50;;;13.13;;